createdAt,value
2019-01-14T00:00:31.729Z,1017.91
2019-01-14T00:01:12.342Z,1017.89
2019-01-14T00:01:52.943Z,1017.87
2019-01-14T00:02:33.565Z,1017.89
2019-01-14T00:03:14.185Z,1017.89
2019-01-14T00:03:54.789Z,1017.91
2019-01-14T00:04:35.385Z,1017.88
2019-01-14T00:05:15.987Z,1017.87
2019-01-14T00:05:56.593Z,1017.88
2019-01-14T00:06:37.209Z,1017.91
2019-01-14T00:07:17.825Z,1017.87
2019-01-14T00:07:58.438Z,1017.87
2019-01-14T00:08:39.057Z,1017.9
2019-01-14T00:09:23.000Z,1017.87
2019-01-14T00:10:00.293Z,1017.84
2019-01-14T00:10:40.889Z,1017.82
2019-01-14T00:11:21.539Z,1017.78
2019-01-14T00:12:02.160Z,1017.79
2019-01-14T00:12:42.759Z,1017.81
2019-01-14T00:13:23.387Z,1017.79
2019-01-14T00:14:04.007Z,1017.82
2019-01-14T00:14:44.613Z,1017.84
2019-01-14T00:15:25.237Z,1017.84
2019-01-14T00:16:05.840Z,1017.82
2019-01-14T00:16:46.499Z,1017.79
2019-01-14T00:17:27.111Z,1017.78
2019-01-14T00:18:07.749Z,1017.7
2019-01-14T00:18:48.386Z,1017.74
2019-01-14T00:19:28.992Z,1017.7
2019-01-14T00:20:09.597Z,1017.7
2019-01-14T00:20:50.215Z,1017.68
2019-01-14T00:21:30.841Z,1017.7
2019-01-14T00:22:11.461Z,1017.67
2019-01-14T00:22:52.075Z,1017.72
2019-01-14T00:23:32.687Z,1017.66
2019-01-14T00:24:13.306Z,1017.7
2019-01-14T00:24:53.906Z,1017.69
2019-01-14T00:25:34.521Z,1017.68
2019-01-14T00:26:15.161Z,1017.69
2019-01-14T00:26:55.775Z,1017.68
2019-01-14T00:27:36.380Z,1017.65
2019-01-14T00:28:16.985Z,1017.67
2019-01-14T00:28:57.577Z,1017.66
2019-01-14T00:29:38.194Z,1017.63
2019-01-14T00:30:18.792Z,1017.6
2019-01-14T00:30:59.413Z,1017.59
2019-01-14T00:31:40.019Z,1017.59
2019-01-14T00:32:20.615Z,1017.54
2019-01-14T00:33:01.227Z,1017.52
2019-01-14T00:33:41.825Z,1017.55
2019-01-14T00:34:22.449Z,1017.54
2019-01-14T00:35:03.068Z,1017.5
2019-01-14T00:35:43.717Z,1017.49
2019-01-14T00:36:24.333Z,1017.45
2019-01-14T00:37:04.933Z,1017.48
2019-01-14T00:37:45.569Z,1017.47
2019-01-14T00:38:26.182Z,1017.45
2019-01-14T00:39:06.783Z,1017.46
2019-01-14T00:39:47.383Z,1017.44
2019-01-14T00:40:28.003Z,1017.45
2019-01-14T00:41:08.615Z,1017.44
2019-01-14T00:41:49.233Z,1017.44
2019-01-14T00:42:29.855Z,1017.45
2019-01-14T00:43:10.463Z,1017.43
2019-01-14T00:43:51.071Z,1017.39
2019-01-14T00:44:31.695Z,1017.38
2019-01-14T00:45:12.313Z,1017.41
2019-01-14T00:45:52.917Z,1017.35
2019-01-14T00:46:33.525Z,1017.32
2019-01-14T00:47:14.151Z,1017.33
2019-01-14T00:47:54.754Z,1017.34
2019-01-14T00:48:35.343Z,1017.4
2019-01-14T00:49:15.951Z,1017.38
2019-01-14T00:49:56.583Z,1017.4
2019-01-14T00:50:37.188Z,1017.34
2019-01-14T00:51:17.801Z,1017.4
2019-01-14T00:51:58.407Z,1017.37
2019-01-14T00:52:39.079Z,1017.36
2019-01-14T00:53:19.690Z,1017.32
2019-01-14T00:54:00.295Z,1017.33
2019-01-14T00:54:40.910Z,1017.36
2019-01-14T00:55:21.507Z,1017.32
2019-01-14T00:56:02.119Z,1017.3
2019-01-14T00:56:42.719Z,1017.33
2019-01-14T00:57:23.341Z,1017.32
2019-01-14T00:58:03.947Z,1017.29
2019-01-14T00:58:44.553Z,1017.32
2019-01-14T00:59:25.166Z,1017.31
2019-01-14T01:00:05.767Z,1017.3
2019-01-14T01:00:46.383Z,1017.3
2019-01-14T01:01:26.983Z,1017.29
2019-01-14T01:02:07.611Z,1017.29
2019-01-14T01:02:48.231Z,1017.23
2019-01-14T01:03:28.840Z,1017.21
2019-01-14T01:04:09.454Z,1017.22
2019-01-14T01:04:50.090Z,1017.23
2019-01-14T01:05:30.685Z,1017.26
2019-01-14T01:06:11.287Z,1017.24
2019-01-14T01:06:51.891Z,1017.21
2019-01-14T01:07:32.502Z,1017.19
2019-01-14T01:08:13.097Z,1017.2
2019-01-14T01:08:53.704Z,1017.16
2019-01-14T01:09:34.333Z,1017.14
2019-01-14T01:10:14.953Z,1017.12
2019-01-14T01:10:55.573Z,1017.1
2019-01-14T01:11:36.204Z,1017.06
2019-01-14T01:12:16.809Z,1017.09
2019-01-14T01:12:57.411Z,1017.08
2019-01-14T01:13:38.014Z,1017.09
2019-01-14T01:14:18.624Z,1017.11
2019-01-14T01:14:59.243Z,1017.07
2019-01-14T01:15:39.867Z,1017.06
2019-01-14T01:16:20.493Z,1017.05
2019-01-14T01:17:01.107Z,1017.06
2019-01-14T01:17:41.777Z,1017.07
2019-01-14T01:18:22.393Z,1017.01
2019-01-14T01:19:02.990Z,1017.02
2019-01-14T01:19:43.604Z,1017.01
2019-01-14T01:20:24.203Z,1017.03
2019-01-14T01:21:04.826Z,1017.05
2019-01-14T01:21:45.414Z,1017.02
2019-01-14T01:22:26.033Z,1017.1
2019-01-14T01:23:06.686Z,1017.05
2019-01-14T01:23:47.311Z,1017.07
2019-01-14T01:24:27.933Z,1017.05
2019-01-14T01:25:08.553Z,1017.02
2019-01-14T01:25:49.182Z,1017.05
2019-01-14T01:26:29.834Z,1017.05
2019-01-14T01:27:10.446Z,1016.99
2019-01-14T01:27:51.040Z,1016.97
2019-01-14T01:28:31.645Z,1016.98
2019-01-14T01:29:12.249Z,1017
2019-01-14T01:29:52.859Z,1016.94
2019-01-14T01:30:33.458Z,1016.98
2019-01-14T01:31:14.059Z,1016.98
2019-01-14T01:31:54.689Z,1016.96
2019-01-14T01:32:35.313Z,1017.01
2019-01-14T01:33:15.918Z,1017
2019-01-14T01:33:56.527Z,1017
2019-01-14T01:34:37.132Z,1017.04
2019-01-14T01:35:17.739Z,1016.98
2019-01-14T01:35:58.345Z,1016.98
2019-01-14T01:36:38.977Z,1016.95
2019-01-14T01:37:19.599Z,1016.96
2019-01-14T01:38:00.219Z,1016.93
2019-01-14T01:38:40.877Z,1016.89
2019-01-14T01:39:21.478Z,1016.92
2019-01-14T01:40:02.117Z,1016.93
2019-01-14T01:40:42.732Z,1016.88
2019-01-14T01:41:23.344Z,1016.86
2019-01-14T01:42:03.939Z,1016.88
2019-01-14T01:42:44.561Z,1016.92
2019-01-14T01:43:25.163Z,1016.94
2019-01-14T01:44:05.787Z,1016.86
2019-01-14T01:44:46.424Z,1016.89
2019-01-14T01:45:27.029Z,1016.93
2019-01-14T01:46:07.679Z,1016.84
2019-01-14T01:46:48.325Z,1016.89
2019-01-14T01:47:28.955Z,1016.93
2019-01-14T01:48:09.559Z,1016.88
2019-01-14T01:48:50.165Z,1016.9
2019-01-14T01:49:30.772Z,1016.9
2019-01-14T01:50:11.386Z,1016.88
2019-01-14T01:50:52.022Z,1016.83
2019-01-14T01:51:32.644Z,1016.81
2019-01-14T01:52:13.283Z,1016.84
2019-01-14T01:52:53.914Z,1016.9
2019-01-14T01:53:34.513Z,1016.93
2019-01-14T01:54:15.139Z,1016.87
2019-01-14T01:54:55.743Z,1016.79
2019-01-14T01:55:36.397Z,1016.72
2019-01-14T01:56:17.012Z,1016.72
2019-01-14T01:56:57.630Z,1016.72
2019-01-14T01:57:38.237Z,1016.84
2019-01-14T01:58:18.837Z,1016.85
2019-01-14T01:58:59.467Z,1016.9
2019-01-14T01:59:40.059Z,1016.84
2019-01-14T02:00:20.668Z,1016.85
2019-01-14T02:01:01.310Z,1016.86
2019-01-14T02:01:41.920Z,1016.84
2019-01-14T02:02:22.516Z,1016.81
2019-01-14T02:03:03.119Z,1016.8
2019-01-14T02:03:43.712Z,1016.8
2019-01-14T02:04:24.319Z,1016.84
2019-01-14T02:05:04.929Z,1016.84
2019-01-14T02:05:45.522Z,1016.86
2019-01-14T02:06:26.115Z,1016.84
2019-01-14T02:07:06.725Z,1016.85
2019-01-14T02:07:47.331Z,1016.87
2019-01-14T02:08:27.936Z,1016.87
2019-01-14T02:09:08.530Z,1016.85
2019-01-14T02:09:49.126Z,1016.85
2019-01-14T02:10:29.736Z,1016.78
2019-01-14T02:11:10.326Z,1016.78
2019-01-14T02:11:50.948Z,1016.78
2019-01-14T02:12:31.551Z,1016.76
2019-01-14T02:13:12.244Z,1016.76
2019-01-14T02:13:53.728Z,1016.78
2019-01-14T02:14:34.332Z,1016.8
2019-01-14T02:15:14.934Z,1016.78
2019-01-14T02:15:55.525Z,1016.78
2019-01-14T02:16:36.134Z,1016.78
2019-01-14T02:17:16.732Z,1016.8
2019-01-14T02:17:57.348Z,1016.8
2019-01-14T02:18:37.948Z,1016.78
2019-01-14T02:19:18.554Z,1016.83
2019-01-14T02:19:59.172Z,1016.76
2019-01-14T02:20:39.779Z,1016.77
2019-01-14T02:21:20.387Z,1016.73
2019-01-14T02:22:00.987Z,1016.77
2019-01-14T02:22:41.599Z,1016.76
2019-01-14T02:23:22.191Z,1016.75
2019-01-14T02:24:02.803Z,1016.75
2019-01-14T02:24:43.409Z,1016.74
2019-01-14T02:25:24.035Z,1016.71
2019-01-14T02:26:04.668Z,1016.7
2019-01-14T02:26:45.265Z,1016.69
2019-01-14T02:27:25.868Z,1016.67
2019-01-14T02:28:06.469Z,1016.66
2019-01-14T02:28:47.068Z,1016.67
2019-01-14T02:29:27.691Z,1016.66
2019-01-14T02:30:08.329Z,1016.69
2019-01-14T02:30:48.938Z,1016.64
2019-01-14T02:31:29.514Z,1016.65
2019-01-14T02:32:10.126Z,1016.69
2019-01-14T02:32:50.719Z,1016.61
2019-01-14T02:33:31.338Z,1016.66
2019-01-14T02:34:11.938Z,1016.7
2019-01-14T02:34:52.553Z,1016.69
2019-01-14T02:35:33.168Z,1016.69
2019-01-14T02:36:13.783Z,1016.69
2019-01-14T02:36:54.389Z,1016.69
2019-01-14T02:37:34.987Z,1016.72
2019-01-14T02:38:15.598Z,1016.69
2019-01-14T02:38:56.266Z,1016.69
2019-01-14T02:39:36.906Z,1016.68
2019-01-14T02:40:17.499Z,1016.62
2019-01-14T02:40:58.101Z,1016.61
2019-01-14T02:41:38.698Z,1016.61
2019-01-14T02:42:19.301Z,1016.63
2019-01-14T02:42:59.915Z,1016.59
2019-01-14T02:43:40.523Z,1016.6
2019-01-14T02:44:21.178Z,1016.63
2019-01-14T02:45:01.774Z,1016.57
2019-01-14T02:45:42.436Z,1016.57
2019-01-14T02:46:23.041Z,1016.58
2019-01-14T02:47:03.646Z,1016.55
2019-01-14T02:47:44.264Z,1016.57
2019-01-14T02:48:24.863Z,1016.55
2019-01-14T02:49:05.483Z,1016.58
2019-01-14T02:49:46.092Z,1016.55
2019-01-14T02:50:26.711Z,1016.55
2019-01-14T02:51:07.372Z,1016.49
2019-01-14T02:51:47.980Z,1016.52
2019-01-14T02:52:28.606Z,1016.51
2019-01-14T02:53:09.231Z,1016.48
2019-01-14T02:53:49.844Z,1016.53
2019-01-14T02:54:30.462Z,1016.55
2019-01-14T02:55:11.078Z,1016.54
2019-01-14T02:55:51.665Z,1016.52
2019-01-14T02:56:32.280Z,1016.46
2019-01-14T02:57:12.906Z,1016.46
2019-01-14T02:57:53.521Z,1016.45
2019-01-14T02:58:34.140Z,1016.42
2019-01-14T02:59:14.739Z,1016.39
2019-01-14T02:59:56.104Z,1016.43
2019-01-14T03:00:35.956Z,1016.4
2019-01-14T03:01:16.586Z,1016.42
2019-01-14T03:01:57.186Z,1016.42
2019-01-14T03:02:37.793Z,1016.36
2019-01-14T03:03:18.403Z,1016.38
2019-01-14T03:03:59.007Z,1016.33
2019-01-14T03:04:39.636Z,1016.31
2019-01-14T03:05:20.235Z,1016.31
2019-01-14T03:06:00.841Z,1016.3
2019-01-14T03:06:41.450Z,1016.29
2019-01-14T03:07:22.047Z,1016.27
2019-01-14T03:08:02.642Z,1016.29
2019-01-14T03:08:43.257Z,1016.22
2019-01-14T03:09:23.870Z,1016.25
2019-01-14T03:10:04.458Z,1016.26
2019-01-14T03:10:45.054Z,1016.25
2019-01-14T03:11:25.668Z,1016.24
2019-01-14T03:12:06.258Z,1016.24
2019-01-14T03:12:46.876Z,1016.25
2019-01-14T03:13:27.498Z,1016.24
2019-01-14T03:14:08.136Z,1016.22
2019-01-14T03:14:48.759Z,1016.25
2019-01-14T03:15:29.367Z,1016.21
2019-01-14T03:16:09.962Z,1016.18
2019-01-14T03:16:50.576Z,1016.22
2019-01-14T03:17:31.174Z,1016.17
2019-01-14T03:18:11.785Z,1016.2
2019-01-14T03:18:52.396Z,1016.18
2019-01-14T03:19:33.004Z,1016.15
2019-01-14T03:20:13.611Z,1016.11
2019-01-14T03:20:54.234Z,1016.07
2019-01-14T03:21:34.842Z,1016
2019-01-14T03:22:15.440Z,1016.01
2019-01-14T03:22:56.036Z,1015.95
2019-01-14T03:23:36.634Z,1015.97
2019-01-14T03:24:17.256Z,1015.97
2019-01-14T03:24:58.077Z,1015.96
2019-01-14T03:25:38.478Z,1015.96
2019-01-14T03:26:19.118Z,1015.92
2019-01-14T03:26:59.721Z,1015.93
2019-01-14T03:27:40.317Z,1015.89
2019-01-14T03:28:20.928Z,1015.91
2019-01-14T03:29:01.560Z,1015.87
2019-01-14T03:29:42.174Z,1015.82
2019-01-14T03:30:22.849Z,1015.87
2019-01-14T03:31:03.454Z,1015.83
2019-01-14T03:31:44.076Z,1015.83
2019-01-14T03:32:24.688Z,1015.84
2019-01-14T03:33:05.297Z,1015.85
2019-01-14T03:33:45.896Z,1015.85
2019-01-14T03:34:26.504Z,1015.84
2019-01-14T03:35:07.126Z,1015.82
2019-01-14T03:35:47.731Z,1015.83
2019-01-14T03:36:28.335Z,1015.77
2019-01-14T03:37:08.936Z,1015.77
2019-01-14T03:37:49.529Z,1015.77
2019-01-14T03:38:30.138Z,1015.74
2019-01-14T03:39:10.746Z,1015.75
2019-01-14T03:39:51.352Z,1015.79
2019-01-14T03:40:31.964Z,1015.73
2019-01-14T03:41:12.621Z,1015.73
2019-01-14T03:41:53.234Z,1015.74
2019-01-14T03:42:33.834Z,1015.7
2019-01-14T03:43:14.438Z,1015.7
2019-01-14T03:43:55.048Z,1015.69
2019-01-14T03:44:35.688Z,1015.67
2019-01-14T03:45:16.310Z,1015.69
2019-01-14T03:45:56.912Z,1015.65
2019-01-14T03:46:37.527Z,1015.59
2019-01-14T03:47:18.134Z,1015.63
2019-01-14T03:47:58.742Z,1015.62
2019-01-14T03:48:39.396Z,1015.59
2019-01-14T03:49:19.998Z,1015.6
2019-01-14T03:50:00.624Z,1015.56
2019-01-14T03:50:41.256Z,1015.54
2019-01-14T03:51:21.852Z,1015.52
2019-01-14T03:52:02.454Z,1015.51
2019-01-14T03:52:43.060Z,1015.54
2019-01-14T03:53:23.660Z,1015.52
2019-01-14T03:54:04.272Z,1015.51
2019-01-14T03:54:44.883Z,1015.57
2019-01-14T03:55:25.497Z,1015.55
2019-01-14T03:56:06.094Z,1015.52
2019-01-14T03:56:46.707Z,1015.49
2019-01-14T03:57:27.308Z,1015.48
2019-01-14T03:58:07.912Z,1015.42
2019-01-14T03:58:48.518Z,1015.34
2019-01-14T03:59:29.120Z,1015.32
2019-01-14T04:00:09.720Z,1015.43
2019-01-14T04:00:50.344Z,1015.45
2019-01-14T04:01:30.946Z,1015.45
2019-01-14T04:02:11.548Z,1015.38
2019-01-14T04:02:52.156Z,1015.39
2019-01-14T04:03:32.762Z,1015.37
2019-01-14T04:04:13.360Z,1015.35
2019-01-14T04:04:53.970Z,1015.38
2019-01-14T04:05:34.592Z,1015.39
2019-01-14T04:06:15.222Z,1015.36
2019-01-14T04:06:55.822Z,1015.34
2019-01-14T04:07:36.437Z,1015.3
2019-01-14T04:08:17.032Z,1015.34
2019-01-14T04:08:57.635Z,1015.31
2019-01-14T04:09:38.250Z,1015.4
2019-01-14T04:10:18.866Z,1015.31
2019-01-14T04:10:59.470Z,1015.29
2019-01-14T04:11:40.099Z,1015.29
2019-01-14T04:12:20.708Z,1015.3
2019-01-14T04:13:01.312Z,1015.3
2019-01-14T04:13:41.944Z,1015.29
2019-01-14T04:14:22.552Z,1015.28
2019-01-14T04:15:03.162Z,1015.27
2019-01-14T04:15:43.788Z,1015.28
2019-01-14T04:16:24.400Z,1015.26
2019-01-14T04:17:05.034Z,1015.21
2019-01-14T04:17:45.659Z,1015.19
2019-01-14T04:18:26.272Z,1015.23
2019-01-14T04:19:06.886Z,1015.19
2019-01-14T04:19:47.518Z,1015.15
2019-01-14T04:20:28.122Z,1015.16
2019-01-14T04:21:08.738Z,1015.19
2019-01-14T04:21:49.340Z,1015.14
2019-01-14T04:22:30.012Z,1015.13
2019-01-14T04:23:10.631Z,1015.18
2019-01-14T04:23:51.288Z,1015.17
2019-01-14T04:24:31.926Z,1015.12
2019-01-14T04:25:12.538Z,1015.15
2019-01-14T04:25:53.160Z,1015.16
2019-01-14T04:26:33.754Z,1015.14
2019-01-14T04:27:14.404Z,1015.1
2019-01-14T04:27:55.023Z,1015.15
2019-01-14T04:28:35.644Z,1015.12
2019-01-14T04:29:16.292Z,1015.17
2019-01-14T04:29:56.918Z,1015.18
2019-01-14T04:30:37.548Z,1015.14
2019-01-14T04:31:18.167Z,1015.12
2019-01-14T04:31:58.791Z,1015.12
2019-01-14T04:32:39.400Z,1015.12
2019-01-14T04:33:20.014Z,1015.16
2019-01-14T04:34:00.635Z,1015.14
2019-01-14T04:34:41.246Z,1015.16
2019-01-14T04:35:21.864Z,1015.09
2019-01-14T04:36:02.475Z,1015.09
2019-01-14T04:36:43.088Z,1015.09
2019-01-14T04:37:23.697Z,1015.06
2019-01-14T04:38:04.300Z,1015.05
2019-01-14T04:38:44.920Z,1015.08
2019-01-14T04:39:25.522Z,1015.07
2019-01-14T04:40:06.161Z,1015.08
2019-01-14T04:40:46.791Z,1015.08
2019-01-14T04:41:27.399Z,1015.1
2019-01-14T04:42:08.011Z,1015.07
2019-01-14T04:42:48.623Z,1015.06
2019-01-14T04:43:29.238Z,1015.06
2019-01-14T04:44:09.846Z,1015.07
2019-01-14T04:44:50.468Z,1015.05
2019-01-14T04:45:31.123Z,1015.09
2019-01-14T04:46:11.756Z,1015.12
2019-01-14T04:46:52.371Z,1015.1
2019-01-14T04:47:32.974Z,1015.11
2019-01-14T04:48:13.600Z,1015.08
2019-01-14T04:48:54.218Z,1015.06
2019-01-14T04:49:34.817Z,1015.05
2019-01-14T04:50:15.430Z,1015.01
2019-01-14T04:50:56.054Z,1015.05
2019-01-14T04:51:36.688Z,1015.05
2019-01-14T04:52:17.301Z,1015.06
2019-01-14T04:52:57.922Z,1015.06
2019-01-14T04:53:38.525Z,1015.04
2019-01-14T04:54:19.146Z,1015
2019-01-14T04:54:59.757Z,1015
2019-01-14T04:55:40.363Z,1015
2019-01-14T04:56:20.970Z,1014.94
2019-01-14T04:57:01.580Z,1014.94
2019-01-14T04:57:42.225Z,1014.95
2019-01-14T04:58:22.847Z,1014.94
2019-01-14T04:59:03.466Z,1014.96
2019-01-14T04:59:44.103Z,1014.96
2019-01-14T05:00:24.713Z,1014.95
2019-01-14T05:01:05.316Z,1014.92
2019-01-14T05:01:45.951Z,1014.94
2019-01-14T05:02:26.566Z,1014.95
2019-01-14T05:03:07.198Z,1014.91
2019-01-14T05:03:47.806Z,1014.97
2019-01-14T05:04:28.422Z,1014.97
2019-01-14T05:05:09.035Z,1014.93
2019-01-14T05:05:49.664Z,1014.95
2019-01-14T05:06:30.292Z,1014.91
2019-01-14T05:07:10.889Z,1014.88
2019-01-14T05:07:51.496Z,1014.91
2019-01-14T05:08:32.140Z,1014.92
2019-01-14T05:09:12.743Z,1014.93
2019-01-14T05:09:53.403Z,1014.98
2019-01-14T05:10:34.038Z,1014.95
2019-01-14T05:11:14.644Z,1014.97
2019-01-14T05:11:55.253Z,1014.95
2019-01-14T05:12:35.893Z,1014.95
2019-01-14T05:13:16.497Z,1014.95
2019-01-14T05:13:57.110Z,1014.99
2019-01-14T05:14:37.722Z,1015.02
2019-01-14T05:15:18.360Z,1014.96
2019-01-14T05:15:58.992Z,1014.94
2019-01-14T05:16:39.609Z,1014.92
2019-01-14T05:17:20.212Z,1014.93
2019-01-14T05:18:00.842Z,1014.93
2019-01-14T05:18:41.437Z,1014.99
2019-01-14T05:19:22.049Z,1014.95
2019-01-14T05:20:02.667Z,1014.89
2019-01-14T05:20:43.270Z,1014.91
2019-01-14T05:21:23.938Z,1014.92
2019-01-14T05:22:04.492Z,1014.88
2019-01-14T05:22:45.110Z,1014.88
2019-01-14T05:23:25.748Z,1014.81
2019-01-14T05:24:06.384Z,1014.84
2019-01-14T05:24:46.994Z,1014.86
2019-01-14T05:25:27.618Z,1014.89
2019-01-14T05:26:08.245Z,1014.95
2019-01-14T05:26:48.859Z,1014.9
2019-01-14T05:27:29.456Z,1014.91
2019-01-14T05:28:10.076Z,1014.9
2019-01-14T05:28:50.687Z,1014.89
2019-01-14T05:29:31.346Z,1014.91
2019-01-14T05:30:11.980Z,1014.9
2019-01-14T05:30:52.584Z,1014.89
2019-01-14T05:31:33.199Z,1014.88
2019-01-14T05:32:13.828Z,1014.9
2019-01-14T05:32:54.430Z,1014.92
2019-01-14T05:33:35.035Z,1014.91
2019-01-14T05:34:15.634Z,1014.83
2019-01-14T05:34:56.230Z,1014.81
2019-01-14T05:35:36.856Z,1014.86
2019-01-14T05:36:17.466Z,1014.9
2019-01-14T05:36:58.076Z,1014.92
2019-01-14T05:37:38.706Z,1014.91
2019-01-14T05:38:19.328Z,1014.88
2019-01-14T05:38:59.953Z,1014.86
2019-01-14T05:39:40.564Z,1014.83
2019-01-14T05:40:21.191Z,1014.85
2019-01-14T05:41:01.796Z,1014.88
2019-01-14T05:41:42.414Z,1014.87
2019-01-14T05:42:23.058Z,1014.97
2019-01-14T05:43:03.673Z,1014.98
2019-01-14T05:43:44.284Z,1014.91
2019-01-14T05:44:24.896Z,1014.9
2019-01-14T05:45:05.501Z,1014.86
2019-01-14T05:45:46.108Z,1014.89
2019-01-14T05:46:26.702Z,1014.88
2019-01-14T05:47:07.300Z,1014.87
2019-01-14T05:47:47.908Z,1014.94
2019-01-14T05:48:28.527Z,1014.95
2019-01-14T05:49:09.147Z,1014.95
2019-01-14T05:49:49.755Z,1014.88
2019-01-14T05:50:30.346Z,1014.89
2019-01-14T05:51:10.953Z,1014.87
2019-01-14T05:51:51.554Z,1014.9
2019-01-14T05:52:32.142Z,1014.86
2019-01-14T05:53:12.756Z,1014.9
2019-01-14T05:53:53.420Z,1014.89
2019-01-14T05:54:34.067Z,1014.9
2019-01-14T05:55:14.677Z,1014.88
2019-01-14T05:55:55.278Z,1014.86
2019-01-14T05:56:35.880Z,1014.86
2019-01-14T05:57:16.488Z,1014.89
2019-01-14T05:57:57.094Z,1014.93
2019-01-14T05:58:37.885Z,1014.94
2019-01-14T05:59:18.485Z,1014.92
2019-01-14T05:59:59.112Z,1014.9
2019-01-14T06:00:39.706Z,1014.94
2019-01-14T06:01:20.325Z,1014.99
2019-01-14T06:02:00.938Z,1014.99
2019-01-14T06:02:41.544Z,1015
2019-01-14T06:03:22.142Z,1015.02
2019-01-14T06:04:02.746Z,1014.98
2019-01-14T06:04:43.348Z,1015
2019-01-14T06:05:23.950Z,1014.98
2019-01-14T06:06:04.563Z,1014.96
2019-01-14T06:06:45.184Z,1014.99
2019-01-14T06:07:25.784Z,1015.01
2019-01-14T06:08:06.406Z,1015.06
2019-01-14T06:08:47.009Z,1015.03
2019-01-14T06:09:27.642Z,1015.04
2019-01-14T06:10:08.236Z,1015.08
2019-01-14T06:10:48.871Z,1015.05
2019-01-14T06:11:29.486Z,1015.01
2019-01-14T06:12:10.111Z,1015
2019-01-14T06:12:50.726Z,1015.01
2019-01-14T06:13:31.342Z,1014.98
2019-01-14T06:14:11.945Z,1014.99
2019-01-14T06:14:52.544Z,1014.97
2019-01-14T06:15:33.150Z,1014.96
2019-01-14T06:16:13.753Z,1014.96
2019-01-14T06:16:54.371Z,1014.92
2019-01-14T06:17:34.994Z,1014.93
2019-01-14T06:18:15.590Z,1014.97
2019-01-14T06:18:56.234Z,1014.95
2019-01-14T06:19:36.834Z,1014.98
2019-01-14T06:20:17.434Z,1014.97
2019-01-14T06:20:58.034Z,1014.95
2019-01-14T06:21:38.674Z,1014.95
2019-01-14T06:22:19.288Z,1014.93
2019-01-14T06:22:59.900Z,1014.99
2019-01-14T06:23:40.506Z,1014.98
2019-01-14T06:24:21.110Z,1014.95
2019-01-14T06:25:01.749Z,1014.97
2019-01-14T06:25:42.359Z,1014.99
2019-01-14T06:26:22.970Z,1015
2019-01-14T06:27:03.578Z,1014.97
2019-01-14T06:27:44.218Z,1014.98
2019-01-14T06:28:24.828Z,1014.99
2019-01-14T06:29:05.456Z,1014.97
2019-01-14T06:29:46.076Z,1015
2019-01-14T06:30:26.685Z,1015.01
2019-01-14T06:31:07.289Z,1015.02
2019-01-14T06:31:47.889Z,1014.95
2019-01-14T06:32:28.506Z,1014.98
2019-01-14T06:33:09.183Z,1014.98
2019-01-14T06:33:49.804Z,1014.94
2019-01-14T06:34:30.414Z,1014.94
2019-01-14T06:35:11.026Z,1014.94
2019-01-14T06:35:51.631Z,1014.93
2019-01-14T06:36:32.251Z,1015.02
2019-01-14T06:37:12.851Z,1015.01
2019-01-14T06:37:53.458Z,1015
2019-01-14T06:38:34.079Z,1015
2019-01-14T06:39:14.676Z,1014.95
2019-01-14T06:39:55.288Z,1014.91
2019-01-14T06:40:35.890Z,1014.93
2019-01-14T06:41:16.511Z,1014.94
2019-01-14T06:41:57.231Z,1014.9
2019-01-14T06:42:37.853Z,1014.92
2019-01-14T06:43:18.462Z,1014.89
2019-01-14T06:43:59.074Z,1014.95
2019-01-14T06:44:39.686Z,1014.97
2019-01-14T06:45:20.333Z,1014.96
2019-01-14T06:46:00.885Z,1014.94
2019-01-14T06:46:41.499Z,1014.91
2019-01-14T06:47:22.092Z,1014.93
2019-01-14T06:48:02.694Z,1014.95
2019-01-14T06:48:43.308Z,1014.91
2019-01-14T06:49:23.932Z,1014.95
2019-01-14T06:50:04.550Z,1014.94
2019-01-14T06:50:45.152Z,1014.9
2019-01-14T06:51:25.768Z,1014.9
2019-01-14T06:52:06.389Z,1014.88
2019-01-14T06:52:47.007Z,1014.9
2019-01-14T06:53:27.667Z,1014.92
2019-01-14T06:54:08.284Z,1014.93
2019-01-14T06:54:48.890Z,1014.94
2019-01-14T06:55:29.486Z,1014.94
2019-01-14T06:56:10.092Z,1014.89
2019-01-14T06:56:50.711Z,1014.86
2019-01-14T06:57:31.343Z,1014.84
2019-01-14T06:58:11.947Z,1014.85
2019-01-14T06:58:52.549Z,1014.84
2019-01-14T06:59:33.176Z,1014.87
2019-01-14T07:00:13.781Z,1014.89
2019-01-14T07:00:54.385Z,1014.88
2019-01-14T07:01:35.034Z,1014.86
2019-01-14T07:02:15.652Z,1014.89
2019-01-14T07:02:56.285Z,1014.91
2019-01-14T07:03:36.899Z,1014.9
2019-01-14T07:04:17.526Z,1014.88
2019-01-14T07:04:58.149Z,1014.91
2019-01-14T07:05:38.784Z,1014.89
2019-01-14T07:06:19.400Z,1014.86
2019-01-14T07:07:00.017Z,1014.85
2019-01-14T07:07:40.661Z,1014.9
2019-01-14T07:08:21.271Z,1014.92
2019-01-14T07:09:01.893Z,1014.95
2019-01-14T07:09:42.529Z,1014.97
2019-01-14T07:10:23.142Z,1014.98
2019-01-14T07:11:03.752Z,1014.96
2019-01-14T07:11:44.374Z,1014.92
2019-01-14T07:12:25.001Z,1014.95
2019-01-14T07:13:05.622Z,1014.94
2019-01-14T07:13:46.229Z,1014.96
2019-01-14T07:14:26.837Z,1014.96
2019-01-14T07:15:07.433Z,1014.96
2019-01-14T07:15:48.039Z,1014.95
2019-01-14T07:16:28.638Z,1014.95
2019-01-14T07:17:09.244Z,1014.96
2019-01-14T07:17:49.855Z,1014.92
2019-01-14T07:18:30.457Z,1014.97
2019-01-14T07:19:11.092Z,1014.91
2019-01-14T07:19:51.696Z,1014.94
2019-01-14T07:20:32.313Z,1014.93
2019-01-14T07:21:12.922Z,1014.93
2019-01-14T07:21:53.519Z,1014.94
2019-01-14T07:22:34.137Z,1014.91
2019-01-14T07:23:14.757Z,1014.93
2019-01-14T07:23:55.358Z,1014.88
2019-01-14T07:24:35.976Z,1014.92
2019-01-14T07:25:16.579Z,1014.93
2019-01-14T07:25:57.181Z,1014.93
2019-01-14T07:26:37.785Z,1014.92
2019-01-14T07:27:18.395Z,1014.96
2019-01-14T07:27:59.088Z,1014.93
2019-01-14T07:28:39.691Z,1014.95
2019-01-14T07:29:20.309Z,1014.95
2019-01-14T07:30:00.994Z,1014.96
2019-01-14T07:30:41.575Z,1014.94
2019-01-14T07:31:22.175Z,1014.94
2019-01-14T07:32:02.784Z,1014.94
2019-01-14T07:32:43.393Z,1015.03
2019-01-14T07:33:24.027Z,1015.06
2019-01-14T07:34:04.630Z,1015.07
2019-01-14T07:34:45.297Z,1014.99
2019-01-14T07:35:25.872Z,1014.93
2019-01-14T07:36:06.493Z,1014.98
2019-01-14T07:36:47.108Z,1014.99
2019-01-14T07:37:27.722Z,1014.98
2019-01-14T07:38:08.349Z,1014.96
2019-01-14T07:38:48.946Z,1014.97
2019-01-14T07:39:29.556Z,1014.96
2019-01-14T07:40:10.175Z,1014.94
2019-01-14T07:40:50.785Z,1014.96
2019-01-14T07:41:31.387Z,1014.92
2019-01-14T07:42:11.980Z,1014.88
2019-01-14T07:42:52.584Z,1014.89
2019-01-14T07:43:33.205Z,1014.96
2019-01-14T07:44:13.836Z,1014.99
2019-01-14T07:44:54.446Z,1014.96
2019-01-14T07:45:35.057Z,1014.97
2019-01-14T07:46:15.665Z,1014.96
2019-01-14T07:46:56.267Z,1015.01
2019-01-14T07:47:36.871Z,1014.97
2019-01-14T07:48:17.508Z,1014.98
2019-01-14T07:48:58.104Z,1015.04
2019-01-14T07:49:38.702Z,1015.04
2019-01-14T07:50:19.304Z,1015.02
2019-01-14T07:50:59.908Z,1014.97
2019-01-14T07:51:41.449Z,1015
2019-01-14T07:52:21.116Z,1015.03
2019-01-14T07:53:01.734Z,1015.05
2019-01-14T07:53:42.339Z,1015.1
2019-01-14T07:54:22.954Z,1015.12
2019-01-14T07:55:03.581Z,1015.15
2019-01-14T07:55:44.240Z,1015.14
2019-01-14T07:56:24.861Z,1015.11
2019-01-14T07:57:05.477Z,1015.13
2019-01-14T07:57:46.117Z,1015.13
2019-01-14T07:58:26.752Z,1015.18
2019-01-14T07:59:07.357Z,1015.22
2019-01-14T07:59:47.984Z,1015.2
2019-01-14T08:00:28.624Z,1015.22
2019-01-14T08:01:09.231Z,1015.18
2019-01-14T08:01:49.853Z,1015.16
2019-01-14T08:02:30.480Z,1015.17
2019-01-14T08:03:11.105Z,1015.16
2019-01-14T08:03:51.706Z,1015.21
2019-01-14T08:04:32.313Z,1015.22
2019-01-14T08:05:12.924Z,1015.18
2019-01-14T08:05:53.555Z,1015.24
2019-01-14T08:06:34.160Z,1015.24
2019-01-14T08:07:14.865Z,1015.2
2019-01-14T08:07:55.473Z,1015.16
2019-01-14T08:08:36.111Z,1015.15
2019-01-14T08:09:16.879Z,1015.17
2019-01-14T08:09:57.489Z,1015.2
2019-01-14T08:10:38.087Z,1015.25
2019-01-14T08:11:18.714Z,1015.27
2019-01-14T08:11:59.338Z,1015.22
2019-01-14T08:12:39.989Z,1015.21
2019-01-14T08:13:20.614Z,1015.22
2019-01-14T08:14:01.236Z,1015.17